createdAt,value
2017-05-22T00:01:13.903Z,63.25
2017-05-22T00:03:41.427Z,63.49
2017-05-22T00:06:08.951Z,63.79
2017-05-22T00:08:36.516Z,64.17
2017-05-22T00:11:04.136Z,64.46
2017-05-22T00:13:31.711Z,65.28
2017-05-22T00:15:59.250Z,65.05
2017-05-22T00:18:26.779Z,65.46
2017-05-22T00:20:54.328Z,65.60
2017-05-22T00:23:21.871Z,65.89
2017-05-22T00:25:49.816Z,65.90
2017-05-22T00:28:17.338Z,65.82
2017-05-22T00:30:44.864Z,66.86
2017-05-22T00:33:12.427Z,67.57
2017-05-22T00:35:39.951Z,67.79
2017-05-22T00:38:07.503Z,68.52
2017-05-22T00:40:35.122Z,68.62
2017-05-22T00:43:02.720Z,68.74
2017-05-22T00:45:30.287Z,68.66
2017-05-22T00:47:58.183Z,68.37
2017-05-22T00:50:25.739Z,67.79
2017-05-22T00:52:53.249Z,67.01
2017-05-22T00:55:20.832Z,66.59
2017-05-22T00:57:48.360Z,65.81
2017-05-22T01:00:15.967Z,66.10
2017-05-22T01:02:43.476Z,66.03
2017-05-22T01:05:10.999Z,66.30
2017-05-22T01:07:38.572Z,67.61
2017-05-22T01:10:06.197Z,68.46
2017-05-22T01:12:33.732Z,68.67
2017-05-22T01:15:01.306Z,70.12
2017-05-22T01:17:28.846Z,69.31
2017-05-22T01:19:56.459Z,69.79
2017-05-22T01:22:24.009Z,68.49
2017-05-22T01:24:51.931Z,68.50
2017-05-22T01:27:19.439Z,68.27
2017-05-22T01:29:46.960Z,67.36
2017-05-22T01:32:14.560Z,67.70
2017-05-22T01:34:42.128Z,68.12
2017-05-22T01:37:09.648Z,68.03
2017-05-22T01:39:37.200Z,69.06
2017-05-22T01:42:04.719Z,69.76
2017-05-22T01:44:32.271Z,70.37
2017-05-22T01:46:59.929Z,70.49
2017-05-22T01:49:27.540Z,70.66
2017-05-22T01:51:55.091Z,70.76
2017-05-22T01:54:22.942Z,70.63
2017-05-22T01:56:50.475Z,70.20
2017-05-22T01:59:17.995Z,70.66
2017-05-22T02:01:45.611Z,71.82
2017-05-22T02:04:13.152Z,70.91
2017-05-22T02:06:41.032Z,70.91
2017-05-22T02:09:08.539Z,70.02
2017-05-22T02:11:36.062Z,69.78
2017-05-22T02:14:03.616Z,69.65
2017-05-22T02:16:31.139Z,69.80
2017-05-22T02:18:58.692Z,71.29
2017-05-22T02:21:26.238Z,72.03
2017-05-22T02:23:53.801Z,72.69
2017-05-22T02:26:21.335Z,73.48
2017-05-22T02:28:48.922Z,72.86
2017-05-22T02:31:16.564Z,73.41
2017-05-22T02:33:44.080Z,73.74
2017-05-22T02:36:11.759Z,73.79
2017-05-22T02:38:39.271Z,73.79
2017-05-22T02:41:07.212Z,74.02
2017-05-22T02:43:34.731Z,73.78
2017-05-22T02:46:02.260Z,73.96
2017-05-22T02:48:29.807Z,74.54
2017-05-22T02:50:58.168Z,75.15
2017-05-22T02:53:25.911Z,74.57
2017-05-22T02:55:53.448Z,74.59
2017-05-22T02:58:21.309Z,74.34
2017-05-22T03:00:48.833Z,74.12
2017-05-22T03:03:16.359Z,74.48
2017-05-22T03:05:43.919Z,74.47
2017-05-22T03:08:11.475Z,74.51
2017-05-22T03:10:39.378Z,74.70
2017-05-22T03:13:06.902Z,74.72
2017-05-22T03:15:34.420Z,74.05
2017-05-22T03:18:01.975Z,72.50
2017-05-22T03:20:29.500Z,71.82
2017-05-22T03:22:57.067Z,71.49
2017-05-22T03:25:24.591Z,71.49
2017-05-22T03:27:52.106Z,71.33
2017-05-22T03:30:19.671Z,71.77
2017-05-22T03:32:47.207Z,72.57
2017-05-22T03:35:14.834Z,73.54
2017-05-22T03:37:42.405Z,73.56
2017-05-22T03:40:09.999Z,73.87
2017-05-22T03:42:37.542Z,74.06
2017-05-22T03:45:05.076Z,74.58
2017-05-22T03:47:32.895Z,74.75
2017-05-22T03:50:00.450Z,74.60
2017-05-22T03:52:27.989Z,74.72
2017-05-22T03:54:55.545Z,73.36
2017-05-22T03:57:23.127Z,72.41
2017-05-22T03:59:50.699Z,71.34
2017-05-22T04:02:18.253Z,71.68
2017-05-22T04:04:45.800Z,70.74
2017-05-22T04:07:13.487Z,70.72
2017-05-22T04:09:41.028Z,70.60
2017-05-22T04:12:08.951Z,70.34
2017-05-22T04:14:36.493Z,70.32
2017-05-22T04:17:04.009Z,70.83
2017-05-22T04:19:31.821Z,71.34
2017-05-22T04:21:59.398Z,72.48
2017-05-22T04:24:26.911Z,73.54
2017-05-22T04:26:54.791Z,73.60
2017-05-22T04:29:22.323Z,74.02
2017-05-22T04:31:49.850Z,74.49
2017-05-22T04:34:17.446Z,74.82
2017-05-22T04:36:44.967Z,74.76
2017-05-22T04:39:12.525Z,74.64
2017-05-22T04:41:40.047Z,74.47
2017-05-22T04:44:07.615Z,73.95
2017-05-22T04:46:35.145Z,73.92
2017-05-22T04:49:02.668Z,73.21
2017-05-22T04:51:30.289Z,73.41
2017-05-22T04:53:57.813Z,73.79
2017-05-22T04:56:25.686Z,73.32
2017-05-22T04:58:53.220Z,73.40
2017-05-22T05:01:20.821Z,72.69
2017-05-22T05:03:48.382Z,71.76
2017-05-22T05:06:16.300Z,70.29
2017-05-22T05:08:43.832Z,69.46
2017-05-22T05:11:11.353Z,69.37
2017-05-22T05:13:39.206Z,69.02
2017-05-22T05:16:06.744Z,68.64
2017-05-22T05:18:34.357Z,68.58
2017-05-22T05:21:01.931Z,68.49
2017-05-22T05:23:29.952Z,67.88
2017-05-22T05:25:57.525Z,68.29
2017-05-22T05:28:25.157Z,69.10
2017-05-22T05:30:52.735Z,69.19
2017-05-22T05:33:20.267Z,68.63
2017-05-22T05:35:47.832Z,69.02
2017-05-22T05:38:15.356Z,68.16
2017-05-22T05:40:43.050Z,67.73
2017-05-22T05:43:10.607Z,67.23
2017-05-22T05:45:38.236Z,67.11
2017-05-22T05:48:08.443Z,66.93
2017-05-22T05:50:36.400Z,67.08
2017-05-22T05:53:03.924Z,66.85
2017-05-22T05:55:31.502Z,66.76
2017-05-22T05:57:59.034Z,65.50
2017-05-22T06:00:26.648Z,66.09
2017-05-22T06:02:54.352Z,66.21
2017-05-22T06:05:22.163Z,65.61
2017-05-22T06:07:49.690Z,65.77
2017-05-22T06:10:17.222Z,65.54
2017-05-22T06:12:44.803Z,65.20
2017-05-22T06:15:12.327Z,65.49
2017-05-22T06:17:39.867Z,65.52
2017-05-22T06:20:07.790Z,63.79
2017-05-22T06:22:35.353Z,63.79
2017-05-22T06:25:02.875Z,63.73
2017-05-22T06:27:30.451Z,64.43
2017-05-22T06:29:58.004Z,64.10
2017-05-22T06:32:25.584Z,63.76
2017-05-22T06:34:53.145Z,62.95
2017-05-22T06:37:20.710Z,63.29
2017-05-22T06:39:48.562Z,62.37
2017-05-22T06:42:16.103Z,61.44
2017-05-22T06:44:43.633Z,61.89
2017-05-22T06:47:11.199Z,61.39
2017-05-22T06:49:38.765Z,59.89
2017-05-22T06:52:06.359Z,59.16
2017-05-22T06:54:33.975Z,59.88
2017-05-22T06:57:01.826Z,59.66
2017-05-22T06:59:29.373Z,59.19
2017-05-22T07:01:56.902Z,58.92
2017-05-22T07:04:24.471Z,59.52
2017-05-22T07:06:52.044Z,60.01
2017-05-22T07:09:19.914Z,58.71
2017-05-22T07:11:47.444Z,58.68
2017-05-22T07:14:14.966Z,58.79
2017-05-22T07:16:42.568Z,58.75
2017-05-22T07:19:10.182Z,58.88
2017-05-22T07:21:37.707Z,58.62
2017-05-22T07:24:05.267Z,58.26
2017-05-22T07:26:32.782Z,58.36
2017-05-22T07:29:00.625Z,58.20
2017-05-22T07:31:28.193Z,57.79
2017-05-22T07:33:55.841Z,58.08
2017-05-22T07:36:23.479Z,58.03
2017-05-22T07:38:51.029Z,57.65
2017-05-22T07:41:18.672Z,57.49
2017-05-22T07:43:46.221Z,57.55
2017-05-22T07:46:14.084Z,58.05
2017-05-22T07:48:41.617Z,57.81
2017-05-22T07:51:09.161Z,58.16
2017-05-22T07:53:36.749Z,56.59
2017-05-22T07:56:04.275Z,57.07
2017-05-22T07:58:31.801Z,56.53
2017-05-22T08:00:59.373Z,55.91
2017-05-22T08:03:26.899Z,55.88
2017-05-22T08:05:54.772Z,56.01
2017-05-22T08:08:22.273Z,56.73
2017-05-22T08:10:49.795Z,55.72
2017-05-22T08:13:17.357Z,54.58
2017-05-22T08:15:44.917Z,53.70
2017-05-22T08:18:12.789Z,53.63
2017-05-22T08:20:40.320Z,52.88
2017-05-22T08:23:07.839Z,53.06
2017-05-22T08:25:35.671Z,53.16
2017-05-22T08:28:03.213Z,52.70
2017-05-22T08:30:30.804Z,52.66
2017-05-22T08:32:58.359Z,53.24
2017-05-22T08:35:25.892Z,53.18
2017-05-22T08:37:53.838Z,51.55
2017-05-22T08:40:21.394Z,52.52
2017-05-22T08:42:48.943Z,52.86
2017-05-22T08:45:16.488Z,52.99
2017-05-22T08:47:44.028Z,53.06
2017-05-22T08:50:11.611Z,52.61
2017-05-22T08:52:39.157Z,53.85
2017-05-22T08:55:07.171Z,53.64
2017-05-22T08:57:35.032Z,53.01
2017-05-22T09:00:02.580Z,51.92
2017-05-22T09:02:30.179Z,51.29
2017-05-22T09:04:57.751Z,51.93
2017-05-22T09:07:25.349Z,51.88
2017-05-22T09:09:52.912Z,50.85
2017-05-22T09:12:20.487Z,50.43
2017-05-22T09:14:48.091Z,50.64
2017-05-22T09:17:15.944Z,50.76
2017-05-22T09:19:43.519Z,49.04
2017-05-22T09:22:11.064Z,48.83
2017-05-22T09:24:38.993Z,49.78
2017-05-22T09:27:06.515Z,49.75
2017-05-22T09:29:34.048Z,49.28
2017-05-22T09:32:01.948Z,47.86
2017-05-22T09:34:29.485Z,47.28
2017-05-22T09:36:57.022Z,47.25
2017-05-22T09:39:24.623Z,47.81
2017-05-22T09:41:52.200Z,48.03
2017-05-22T09:44:20.029Z,47.19
2017-05-22T09:46:47.556Z,48.04
2017-05-22T09:49:15.105Z,47.39
2017-05-22T09:51:42.653Z,47.30
2017-05-22T09:54:10.177Z,46.26
2017-05-22T09:56:37.747Z,47.18
2017-05-22T09:59:05.295Z,47.53
2017-05-22T10:01:33.143Z,45.47
2017-05-22T10:04:00.705Z,46.01
2017-05-22T10:06:28.244Z,45.60
2017-05-22T10:08:55.825Z,46.31
2017-05-22T10:11:23.399Z,45.33
2017-05-22T10:13:50.919Z,43.38
2017-05-22T10:16:18.479Z,42.73
2017-05-22T10:18:46.016Z,41.90
2017-05-22T10:21:13.570Z,42.16
2017-05-22T10:23:41.167Z,42.66
2017-05-22T10:26:09.084Z,41.87
2017-05-22T10:28:36.628Z,41.56
2017-05-22T10:31:04.165Z,43.22
2017-05-22T10:33:31.754Z,42.48
2017-05-22T10:35:59.287Z,42.21
2017-05-22T10:38:27.185Z,41.82
2017-05-22T10:40:54.703Z,39.09
2017-05-22T10:43:22.320Z,40.69
2017-05-22T10:45:49.911Z,40.70
2017-05-22T10:48:17.453Z,40.72
2017-05-22T10:50:45.372Z,39.64
2017-05-22T10:53:12.914Z,39.68
2017-05-22T10:55:40.445Z,39.64
2017-05-22T10:58:08.017Z,39.65
2017-05-22T11:00:35.572Z,38.82
2017-05-22T11:03:03.247Z,37.60
2017-05-22T11:05:30.792Z,37.40
2017-05-22T11:07:58.381Z,38.60
2017-05-22T11:10:25.963Z,38.07
2017-05-22T11:12:53.615Z,38.85
2017-05-22T11:15:21.197Z,37.02
2017-05-22T11:17:48.735Z,36.85
2017-05-22T11:20:16.389Z,37.67
2017-05-22T11:22:43.975Z,37.26
2017-05-22T11:25:11.527Z,37.32
2017-05-22T11:27:39.056Z,37.20
2017-05-22T11:30:06.639Z,37.89
2017-05-22T11:32:34.194Z,38.21
2017-05-22T11:35:01.735Z,36.76
2017-05-22T11:37:29.290Z,35.63
2017-05-22T11:39:57.163Z,35.93
2017-05-22T11:42:24.692Z,37.47
2017-05-22T11:44:52.236Z,36.97
2017-05-22T11:47:20.075Z,36.06
2017-05-22T11:49:47.607Z,36.17
2017-05-22T11:52:15.137Z,34.68
2017-05-22T11:54:42.698Z,35.17
2017-05-22T11:57:10.221Z,35.43
2017-05-22T11:59:37.778Z,34.97
2017-05-22T12:02:05.332Z,34.49
2017-05-22T12:04:33.227Z,34.55
2017-05-22T12:07:00.755Z,33.24
2017-05-22T12:09:28.290Z,33.06
2017-05-22T12:11:55.853Z,32.62
2017-05-22T12:14:23.426Z,33.38
2017-05-22T12:16:50.960Z,32.71
2017-05-22T12:19:18.501Z,33.43
2017-05-22T12:21:46.055Z,33.00
2017-05-22T12:24:13.599Z,33.27
2017-05-22T12:26:41.169Z,32.82
2017-05-22T12:29:08.698Z,32.29
2017-05-22T12:31:36.219Z,33.00
2017-05-22T12:34:03.771Z,33.51
2017-05-22T12:36:31.398Z,33.56
2017-05-22T12:38:58.996Z,32.94
2017-05-22T12:41:26.594Z,31.84
2017-05-22T12:43:54.172Z,32.42
2017-05-22T12:46:21.795Z,32.44
2017-05-22T12:48:49.365Z,33.08
2017-05-22T12:51:16.960Z,31.65
2017-05-22T12:53:44.587Z,33.12
2017-05-22T12:56:12.129Z,32.84
2017-05-22T12:58:39.675Z,32.98
2017-05-22T13:01:07.311Z,32.19
2017-05-22T13:03:34.871Z,31.49
2017-05-22T13:06:02.388Z,30.92
2017-05-22T13:08:30.241Z,30.94
2017-05-22T13:10:58.286Z,31.54
2017-05-22T13:13:25.886Z,30.08
2017-05-22T13:15:53.739Z,29.95
2017-05-22T13:18:21.283Z,30.21
2017-05-22T13:20:48.840Z,31.52
2017-05-22T13:23:16.379Z,28.61
2017-05-22T13:25:44.093Z,29.36
2017-05-22T13:28:11.666Z,28.94
2017-05-22T13:30:39.213Z,27.63
2017-05-22T13:33:06.775Z,28.40
2017-05-22T13:35:34.304Z,30.13
2017-05-22T13:38:01.913Z,28.89
2017-05-22T13:40:29.438Z,27.73
2017-05-22T13:42:56.984Z,29.09
2017-05-22T13:45:24.554Z,28.67
2017-05-22T13:47:52.176Z,30.65
2017-05-22T13:50:19.728Z,29.77
2017-05-22T13:52:47.259Z,29.99
2017-05-22T13:55:15.172Z,29.39
2017-05-22T13:57:42.762Z,29.29
2017-05-22T14:00:10.279Z,28.34
2017-05-22T14:02:37.864Z,27.72
2017-05-22T14:05:05.460Z,28.40
2017-05-22T14:07:32.983Z,27.40
2017-05-22T14:10:00.523Z,26.42
2017-05-22T14:12:28.063Z,27.45
2017-05-22T14:14:56.057Z,27.01
2017-05-22T14:17:23.576Z,27.50
2017-05-22T14:19:51.179Z,26.35
2017-05-22T14:22:18.783Z,26.15
2017-05-22T14:24:46.384Z,27.10
2017-05-22T14:27:13.977Z,26.78
2017-05-22T14:29:41.565Z,26.58
2017-05-22T14:32:09.083Z,28.11
2017-05-22T14:34:36.903Z,26.14
2017-05-22T14:37:04.492Z,26.32
2017-05-22T14:39:32.019Z,25.71
2017-05-22T14:41:59.575Z,26.23
2017-05-22T14:44:27.092Z,27.03
2017-05-22T14:46:54.671Z,26.60
2017-05-22T14:49:22.207Z,27.71
2017-05-22T14:51:49.783Z,26.70
2017-05-22T14:54:17.465Z,26.73
2017-05-22T14:56:45.064Z,25.94
2017-05-22T14:59:12.600Z,26.39
2017-05-22T15:01:40.243Z,25.92
2017-05-22T15:04:07.808Z,26.14
2017-05-22T15:06:35.688Z,26.48
2017-05-22T15:09:03.217Z,25.93
2017-05-22T15:11:30.735Z,26.03
2017-05-22T15:13:58.334Z,25.85
2017-05-22T15:16:25.895Z,26.51
2017-05-22T15:18:53.543Z,26.20
2017-05-22T15:21:21.180Z,26.22
2017-05-22T15:23:48.709Z,26.28
2017-05-22T15:26:16.264Z,26.02
2017-05-22T15:28:43.806Z,25.26
2017-05-22T15:31:11.379Z,26.45
2017-05-22T15:33:38.900Z,25.31
2017-05-22T15:36:06.452Z,25.45
2017-05-22T15:38:34.088Z,25.38
2017-05-22T15:41:01.666Z,25.58
2017-05-22T15:43:29.520Z,25.47
2017-05-22T15:45:57.049Z,25.89
2017-05-22T15:48:24.584Z,26.33
2017-05-22T15:50:52.172Z,26.19
2017-05-22T15:53:19.887Z,25.92
2017-05-22T15:55:47.419Z,25.24
2017-05-22T15:58:14.997Z,26.22
2017-05-22T16:00:42.532Z,26.91
2017-05-22T16:03:10.104Z,27.13
2017-05-22T16:05:37.635Z,25.95
2017-05-22T16:08:05.212Z,28.11
2017-05-22T16:10:32.839Z,27.46
2017-05-22T16:13:00.376Z,27.55
2017-05-22T16:15:28.312Z,27.63
2017-05-22T16:17:55.863Z,27.79
2017-05-22T16:20:23.385Z,27.97
2017-05-22T16:22:50.953Z,27.69
2017-05-22T16:25:18.484Z,27.42
2017-05-22T16:27:46.351Z,27.25
2017-05-22T16:30:13.884Z,27.61
2017-05-22T16:32:41.470Z,27.21
2017-05-22T16:35:09.308Z,27.92
2017-05-22T16:37:36.880Z,28.63
2017-05-22T16:40:04.408Z,27.31
2017-05-22T16:42:32.031Z,28.32
2017-05-22T16:44:59.555Z,28.13
2017-05-22T16:47:27.110Z,28.96
2017-05-22T16:49:54.661Z,29.45
2017-05-22T16:52:22.484Z,29.41
2017-05-22T16:54:50.028Z,28.80
2017-05-22T16:57:17.563Z,28.82
2017-05-22T16:59:45.116Z,29.56
2017-05-22T17:02:12.654Z,30.35
2017-05-22T17:04:40.238Z,29.65
2017-05-22T17:07:07.844Z,30.00
2017-05-22T17:09:35.376Z,30.57
2017-05-22T17:12:02.985Z,30.31
2017-05-22T17:14:30.517Z,29.98
2017-05-22T17:16:58.089Z,30.38
2017-05-22T17:19:25.648Z,30.25
2017-05-22T17:21:53.599Z,30.44
2017-05-22T17:24:21.194Z,30.52
2017-05-22T17:26:48.737Z,29.87
2017-05-22T17:29:16.570Z,30.31
2017-05-22T17:31:44.100Z,30.27
2017-05-22T17:34:11.632Z,30.88
2017-05-22T17:36:39.520Z,30.38
2017-05-22T17:39:07.046Z,30.04
2017-05-22T17:41:34.575Z,30.47
2017-05-22T17:44:02.136Z,30.61
2017-05-22T17:46:29.708Z,31.02
2017-05-22T17:48:57.622Z,31.38
2017-05-22T17:51:25.194Z,31.57
2017-05-22T17:53:52.739Z,32.34
2017-05-22T17:56:20.335Z,32.44
2017-05-22T17:58:47.860Z,32.00
2017-05-22T18:01:15.501Z,32.24
2017-05-22T18:03:43.071Z,32.38
2017-05-22T18:06:10.599Z,32.34
2017-05-22T18:08:38.149Z,32.63
2017-05-22T18:11:05.667Z,33.04
2017-05-22T18:13:33.516Z,33.49
2017-05-22T18:16:01.084Z,33.40
2017-05-22T18:18:28.616Z,33.66
2017-05-22T18:20:56.187Z,33.86
2017-05-22T18:23:23.734Z,34.42
2017-05-22T18:25:51.285Z,34.43
2017-05-22T18:28:18.922Z,34.38
2017-05-22T18:30:46.463Z,35.07
2017-05-22T18:33:14.067Z,34.73
2017-05-22T18:35:41.801Z,35.07
2017-05-22T18:38:09.369Z,35.16
2017-05-22T18:40:36.964Z,35.71
2017-05-22T18:43:04.509Z,35.71
2017-05-22T18:45:32.098Z,35.99
2017-05-22T18:47:59.689Z,36.22
2017-05-22T18:50:27.231Z,36.13
2017-05-22T18:52:54.891Z,36.33
2017-05-22T18:55:22.492Z,36.84
2017-05-22T18:57:50.115Z,36.76
2017-05-22T19:00:17.685Z,37.36
2017-05-22T19:02:45.213Z,37.38
2017-05-22T19:05:12.750Z,38.36
2017-05-22T19:07:40.317Z,37.53
2017-05-22T19:10:07.857Z,37.66
2017-05-22T19:12:35.745Z,37.78
2017-05-22T19:15:03.272Z,37.73
2017-05-22T19:17:30.813Z,38.59
2017-05-22T19:19:58.429Z,38.82
2017-05-22T19:22:25.976Z,38.74
2017-05-22T19:24:53.595Z,39.05
2017-05-22T19:27:21.129Z,39.67
2017-05-22T19:29:48.688Z,39.77
2017-05-22T19:32:16.268Z,39.58
2017-05-22T19:34:43.803Z,39.77
2017-05-22T19:37:11.433Z,39.58
2017-05-22T19:39:39.110Z,40.40
2017-05-22T19:42:07.155Z,40.42
2017-05-22T19:44:34.754Z,40.14
2017-05-22T19:47:02.377Z,40.14
2017-05-22T19:49:30.017Z,40.09
2017-05-22T19:51:57.615Z,40.01
2017-05-22T19:54:25.206Z,40.44
2017-05-22T19:56:52.763Z,40.74
2017-05-22T19:59:20.336Z,40.37
2017-05-22T20:01:47.928Z,40.56
2017-05-22T20:04:15.643Z,40.91
2017-05-22T20:06:43.465Z,40.77
2017-05-22T20:09:11.044Z,40.94
2017-05-22T20:11:38.582Z,41.18
2017-05-22T20:14:06.139Z,40.71
2017-05-22T20:16:33.799Z,41.30
2017-05-22T20:19:01.364Z,41.30
2017-05-22T20:21:28.934Z,41.26
2017-05-22T20:23:56.484Z,41.60
2017-05-22T20:26:24.460Z,41.86
2017-05-22T20:28:52.004Z,41.94
2017-05-22T20:31:19.539Z,42.01
2017-05-22T20:33:47.103Z,41.72
2017-05-22T20:36:14.640Z,42.33
2017-05-22T20:38:42.543Z,42.40
2017-05-22T20:41:10.162Z,42.32
2017-05-22T20:43:37.699Z,42.29
2017-05-22T20:46:05.278Z,42.13
2017-05-22T20:48:32.813Z,42.20
2017-05-22T20:51:00.359Z,42.57
2017-05-22T20:53:28.267Z,42.78
2017-05-22T20:55:55.804Z,42.94
2017-05-22T20:58:23.345Z,43.07
2017-05-22T21:00:50.930Z,43.09
2017-05-22T21:03:18.475Z,43.62
2017-05-22T21:05:46.570Z,43.65
2017-05-22T21:08:14.117Z,43.70
2017-05-22T21:10:41.737Z,43.91
2017-05-22T21:13:09.311Z,43.61
2017-05-22T21:15:36.839Z,43.42
2017-05-22T21:18:04.423Z,43.50
2017-05-22T21:20:31.955Z,43.47
2017-05-22T21:22:59.456Z,44.00
2017-05-22T21:25:27.024Z,44.03
2017-05-22T21:27:54.551Z,44.02
2017-05-22T21:30:22.121Z,44.15
2017-05-22T21:32:49.640Z,44.24
2017-05-22T21:35:17.509Z,44.40
2017-05-22T21:37:45.087Z,44.34
2017-05-22T21:40:12.924Z,44.81
2017-05-22T21:42:40.476Z,45.08
2017-05-22T21:45:08.008Z,45.19
2017-05-22T21:47:35.571Z,44.94
2017-05-22T21:50:03.096Z,45.09
2017-05-22T21:52:30.946Z,45.42
2017-05-22T21:54:58.477Z,45.76
2017-05-22T21:57:26.006Z,45.59
2017-05-22T21:59:53.850Z,45.42
2017-05-22T22:02:21.375Z,46.24
2017-05-22T22:04:48.892Z,46.13
2017-05-22T22:07:16.460Z,46.31
2017-05-22T22:09:44.013Z,46.62
2017-05-22T22:12:11.605Z,46.77
2017-05-22T22:14:39.153Z,46.39
2017-05-22T22:17:06.753Z,46.20
2017-05-22T22:19:34.290Z,46.27
2017-05-22T22:22:01.840Z,46.54
2017-05-22T22:24:29.405Z,47.49
2017-05-22T22:26:56.969Z,47.89
2017-05-22T22:29:24.560Z,47.75
2017-05-22T22:31:52.209Z,47.90
2017-05-22T22:34:19.918Z,48.18
2017-05-22T22:36:47.451Z,47.28
2017-05-22T22:39:15.008Z,47.58
2017-05-22T22:41:42.717Z,47.75
2017-05-22T22:44:10.268Z,47.88
2017-05-22T22:46:37.888Z,47.68
2017-05-22T22:49:05.420Z,48.20
2017-05-22T22:51:32.980Z,48.45
2017-05-22T22:54:00.546Z,48.46
2017-05-22T22:56:28.080Z,47.83
2017-05-22T22:58:55.724Z,47.93
2017-05-22T23:01:23.300Z,47.73
2017-05-22T23:03:50.913Z,47.88
2017-05-22T23:06:18.448Z,47.97
2017-05-22T23:08:45.975Z,48.73
2017-05-22T23:11:13.544Z,48.91
2017-05-22T23:13:41.158Z,48.32
2017-05-22T23:16:08.758Z,48.81
2017-05-22T23:18:36.314Z,48.55
2017-05-22T23:21:03.851Z,48.79
2017-05-22T23:23:31.467Z,48.73
2017-05-22T23:25:58.996Z,48.63
2017-05-22T23:28:26.529Z,48.47
2017-05-22T23:30:54.235Z,48.87
2017-05-22T23:33:21.811Z,49.18
2017-05-22T23:35:49.923Z,49.25
2017-05-22T23:38:17.465Z,49.40
2017-05-22T23:40:45.040Z,49.34
2017-05-22T23:43:12.618Z,49.40
2017-05-22T23:45:40.156Z,49.47
2017-05-22T23:48:07.716Z,49.75
2017-05-22T23:50:35.277Z,49.94
2017-05-22T23:53:03.206Z,49.73
2017-05-22T23:55:30.768Z,50.04
2017-05-22T23:57:58.317Z,50.08
